sensor_id;sensor_type;location;lat;lon;timestamp;pressure;altitude;pressure_sealevel;temperature;humidity
35489;BME280;21602;55.670;37.578;2023-03-13T00:00:49;97749.97;;;-3.98;80.92
35489;BME280;21602;55.670;37.578;2023-03-13T00:03:15;97748.59;;;-3.94;81.14
35489;BME280;21602;55.670;37.578;2023-03-13T00:05:41;97752.03;;;-3.94;81.42
35489;BME280;21602;55.670;37.578;2023-03-13T00:08:06;97763.28;;;-3.93;81.36
35489;BME280;21602;55.670;37.578;2023-03-13T00:10:35;97756.41;;;-3.94;81.35
35489;BME280;21602;55.670;37.578;2023-03-13T00:13:01;97756.88;;;-3.91;81.70
35489;BME280;21602;55.670;37.578;2023-03-13T00:15:27;97760.66;;;-3.93;81.04
35489;BME280;21602;55.670;37.578;2023-03-13T00:17:53;97756.06;;;-3.91;80.83
35489;BME280;21602;55.670;37.578;2023-03-13T00:20:18;97771.34;;;-3.88;81.15
35489;BME280;21602;55.670;37.578;2023-03-13T00:22:44;97772.97;;;-3.87;80.90
35489;BME280;21602;55.670;37.578;2023-03-13T00:25:11;97784.00;;;-3.85;80.57
35489;BME280;21602;55.670;37.578;2023-03-13T00:27:38;97790.22;;;-3.86;80.69
35489;BME280;21602;55.670;37.578;2023-03-13T00:30:04;97798.69;;;-3.84;80.68
35489;BME280;21602;55.670;37.578;2023-03-13T00:32:30;97797.03;;;-3.85;80.52
35489;BME280;21602;55.670;37.578;2023-03-13T00:34:56;97787.00;;;-3.88;80.28
35489;BME280;21602;55.670;37.578;2023-03-13T00:37:21;97788.41;;;-3.86;80.40
35489;BME280;21602;55.670;37.578;2023-03-13T00:39:47;97801.66;;;-3.87;80.51
35489;BME280;21602;55.670;37.578;2023-03-13T00:42:14;97802.00;;;-3.90;80.15
35489;BME280;21602;55.670;37.578;2023-03-13T00:44:40;97815.41;;;-3.93;80.52
35489;BME280;21602;55.670;37.578;2023-03-13T00:47:06;97821.31;;;-3.99;80.17
35489;BME280;21602;55.670;37.578;2023-03-13T00:49:33;97815.13;;;-3.98;80.67
35489;BME280;21602;55.670;37.578;2023-03-13T00:51:58;97820.16;;;-3.97;80.19
35489;BME280;21602;55.670;37.578;2023-03-13T00:54:24;97818.16;;;-3.95;80.11
35489;BME280;21602;55.670;37.578;2023-03-13T00:56:50;97825.84;;;-3.93;80.26
35489;BME280;21602;55.670;37.578;2023-03-13T00:59:15;97828.25;;;-3.92;80.19
35489;BME280;21602;55.670;37.578;2023-03-13T01:01:41;97838.06;;;-3.94;80.24
35489;BME280;21602;55.670;37.578;2023-03-13T01:04:09;97843.44;;;-3.95;80.49
35489;BME280;21602;55.670;37.578;2023-03-13T01:06:38;97851.63;;;-3.98;80.62
35489;BME280;21602;55.670;37.578;2023-03-13T01:09:10;97849.81;;;-3.98;80.73
35489;BME280;21602;55.670;37.578;2023-03-13T01:11:38;97858.47;;;-3.97;80.90
35489;BME280;21602;55.670;37.578;2023-03-13T01:14:11;97864.00;;;-4.00;81.18
35489;BME280;21602;55.670;37.578;2023-03-13T01:16:38;97860.41;;;-3.99;81.21
35489;BME280;21602;55.670;37.578;2023-03-13T01:19:08;97864.94;;;-3.93;81.38
35489;BME280;21602;55.670;37.578;2023-03-13T01:21:34;97876.78;;;-3.91;81.54
35489;BME280;21602;55.670;37.578;2023-03-13T01:24:00;97882.38;;;-3.94;81.54
35489;BME280;21602;55.670;37.578;2023-03-13T01:26:26;97893.06;;;-4.03;81.67
35489;BME280;21602;55.670;37.578;2023-03-13T01:28:53;97889.72;;;-4.12;81.90
35489;BME280;21602;55.670;37.578;2023-03-13T01:31:26;97898.72;;;-4.23;81.86
35489;BME280;21602;55.670;37.578;2023-03-13T01:33:58;97899.44;;;-4.29;82.11
35489;BME280;21602;55.670;37.578;2023-03-13T01:36:25;97905.34;;;-4.35;82.44
35489;BME280;21602;55.670;37.578;2023-03-13T01:38:52;97913.78;;;-4.33;82.74
35489;BME280;21602;55.670;37.578;2023-03-13T01:41:19;97916.38;;;-4.33;82.64
35489;BME280;21602;55.670;37.578;2023-03-13T01:43:45;97920.31;;;-4.37;82.71
35489;BME280;21602;55.670;37.578;2023-03-13T01:52:13;97938.94;;;-4.40;83.00
35489;BME280;21602;55.670;37.578;2023-03-13T01:54:56;97944.13;;;-4.40;82.66
35489;BME280;21602;55.670;37.578;2023-03-13T02:00:10;97947.13;;;-4.51;82.85
35489;BME280;21602;55.670;37.578;2023-03-13T02:02:42;97959.41;;;-4.60;83.02
35489;BME280;21602;55.670;37.578;2023-03-13T02:05:09;97956.78;;;-4.60;82.88
35489;BME280;21602;55.670;37.578;2023-03-13T02:07:48;97973.84;;;-4.57;82.84
35489;BME280;21602;55.670;37.578;2023-03-13T02:10:16;97975.31;;;-4.55;83.13
35489;BME280;21602;55.670;37.578;2023-03-13T02:12:43;97970.44;;;-4.58;83.15
35489;BME280;21602;55.670;37.578;2023-03-13T02:15:15;97981.38;;;-4.63;83.04
35489;BME280;21602;55.670;37.578;2023-03-13T02:17:42;97990.97;;;-4.63;83.18
35489;BME280;21602;55.670;37.578;2023-03-13T02:20:11;97995.06;;;-4.69;83.43
35489;BME280;21602;55.670;37.578;2023-03-13T02:28:00;98005.81;;;-4.72;83.44
35489;BME280;21602;55.670;37.578;2023-03-13T02:30:29;98005.63;;;-4.70;83.40
35489;BME280;21602;55.670;37.578;2023-03-13T02:32:55;98019.94;;;-4.66;83.61
35489;BME280;21602;55.670;37.578;2023-03-13T02:35:22;98016.22;;;-4.64;83.43
35489;BME280;21602;55.670;37.578;2023-03-13T02:37:53;98023.66;;;-4.60;83.29
35489;BME280;21602;55.670;37.578;2023-03-13T02:40:27;98033.78;;;-4.66;83.25
35489;BME280;21602;55.670;37.578;2023-03-13T02:42:55;98027.31;;;-4.70;83.29
35489;BME280;21602;55.670;37.578;2023-03-13T02:45:23;98029.94;;;-4.78;83.25
35489;BME280;21602;55.670;37.578;2023-03-13T02:47:48;98030.25;;;-4.81;83.23
35489;BME280;21602;55.670;37.578;2023-03-13T02:50:15;98031.56;;;-4.77;83.29
35489;BME280;21602;55.670;37.578;2023-03-13T02:52:48;98041.34;;;-4.79;83.26
35489;BME280;21602;55.670;37.578;2023-03-13T02:55:18;98042.16;;;-4.78;83.23
35489;BME280;21602;55.670;37.578;2023-03-13T02:57:47;98052.38;;;-4.77;82.96
35489;BME280;21602;55.670;37.578;2023-03-13T03:00:14;98058.22;;;-4.75;82.87
35489;BME280;21602;55.670;37.578;2023-03-13T03:02:42;98057.41;;;-4.75;82.94
35489;BME280;21602;55.670;37.578;2023-03-13T03:05:09;98063.13;;;-4.80;82.75
35489;BME280;21602;55.670;37.578;2023-03-13T03:07:35;98061.34;;;-4.79;82.90
35489;BME280;21602;55.670;37.578;2023-03-13T03:10:02;98066.22;;;-4.84;82.88
35489;BME280;21602;55.670;37.578;2023-03-13T03:12:29;98070.78;;;-4.86;82.89
35489;BME280;21602;55.670;37.578;2023-03-13T03:14:54;98077.78;;;-4.87;82.95
35489;BME280;21602;55.670;37.578;2023-03-13T03:17:21;98072.59;;;-4.87;82.90
35489;BME280;21602;55.670;37.578;2023-03-13T03:19:47;98083.19;;;-4.88;82.93
35489;BME280;21602;55.670;37.578;2023-03-13T03:22:13;98092.94;;;-4.91;82.91
35489;BME280;21602;55.670;37.578;2023-03-13T03:24:39;98098.31;;;-4.92;82.78
35489;BME280;21602;55.670;37.578;2023-03-13T03:27:04;98102.84;;;-4.94;82.95
35489;BME280;21602;55.670;37.578;2023-03-13T03:29:37;98101.72;;;-4.92;82.93
35489;BME280;21602;55.670;37.578;2023-03-13T03:32:03;98105.13;;;-4.91;82.75
35489;BME280;21602;55.670;37.578;2023-03-13T03:34:30;98112.31;;;-4.93;82.73
35489;BME280;21602;55.670;37.578;2023-03-13T03:36:57;98112.94;;;-4.91;82.73
35489;BME280;21602;55.670;37.578;2023-03-13T03:39:23;98112.31;;;-4.93;82.62
35489;BME280;21602;55.670;37.578;2023-03-13T03:41:49;98118.47;;;-4.94;82.55
35489;BME280;21602;55.670;37.578;2023-03-13T03:44:15;98114.09;;;-4.94;82.42
35489;BME280;21602;55.670;37.578;2023-03-13T03:46:56;98122.22;;;-4.97;82.24
35489;BME280;21602;55.670;37.578;2023-03-13T03:49:27;98121.56;;;-4.99;82.44
35489;BME280;21602;55.670;37.578;2023-03-13T03:51:53;98118.63;;;-5.04;82.30
35489;BME280;21602;55.670;37.578;2023-03-13T03:54:26;98133.44;;;-5.04;82.44
35489;BME280;21602;55.670;37.578;2023-03-13T03:56:52;98135.41;;;-5.06;82.33
35489;BME280;21602;55.670;37.578;2023-03-13T03:59:18;98135.59;;;-5.08;82.55
35489;BME280;21602;55.670;37.578;2023-03-13T04:01:46;98144.03;;;-5.06;82.52
35489;BME280;21602;55.670;37.578;2023-03-13T04:04:15;98144.66;;;-5.04;82.46
35489;BME280;21602;55.670;37.578;2023-03-13T04:06:44;98142.88;;;-5.03;82.72
35489;BME280;21602;55.670;37.578;2023-03-13T04:09:11;98149.88;;;-5.04;82.64
35489;BME280;21602;55.670;37.578;2023-03-13T04:11:37;98143.84;;;-5.04;82.60
35489;BME280;21602;55.670;37.578;2023-03-13T04:14:05;98157.53;;;-5.02;82.72
35489;BME280;21602;55.670;37.578;2023-03-13T04:16:31;98160.44;;;-5.05;82.68
35489;BME280;21602;55.670;37.578;2023-03-13T04:18:57;98160.63;;;-5.07;82.76
35489;BME280;21602;55.670;37.578;2023-03-13T04:21:25;98174.63;;;-5.08;82.65
35489;BME280;21602;55.670;37.578;2023-03-13T04:23:59;98170.06;;;-5.06;82.92
35489;BME280;21602;55.670;37.578;2023-03-13T04:26:25;98175.44;;;-5.07;82.71
35489;BME280;21602;55.670;37.578;2023-03-13T04:28:53;98179.47;;;-5.05;82.75
35489;BME280;21602;55.670;37.578;2023-03-13T04:31:36;98187.63;;;-5.08;82.69
35489;BME280;21602;55.670;37.578;2023-03-13T04:34:19;98195.09;;;-5.05;82.64
35489;BME280;21602;55.670;37.578;2023-03-13T04:37:01;98193.97;;;-5.02;82.40
35489;BME280;21602;55.670;37.578;2023-03-13T04:39:44;98200.13;;;-5.03;82.17
35489;BME280;21602;55.670;37.578;2023-03-13T04:42:28;98218.34;;;-5.03;82.22
35489;BME280;21602;55.670;37.578;2023-03-13T04:45:33;98230.41;;;-5.02;82.45
35489;BME280;21602;55.670;37.578;2023-03-13T04:48:13;98229.09;;;-4.98;82.46
35489;BME280;21602;55.670;37.578;2023-03-13T04:50:51;98234.16;;;-4.97;82.12
35489;BME280;21602;55.670;37.578;2023-03-13T04:53:40;98245.06;;;-4.93;82.32
35489;BME280;21602;55.670;37.578;2023-03-13T04:56:32;98241.78;;;-4.87;82.32
35489;BME280;21602;55.670;37.578;2023-03-13T04:59:16;98247.50;;;-4.92;82.04
35489;BME280;21602;55.670;37.578;2023-03-13T05:02:11;98246.34;;;-4.89;81.93
35489;BME280;21602;55.670;37.578;2023-03-13T05:04:55;98247.31;;;-4.90;81.93
35489;BME280;21602;55.670;37.578;2023-03-13T05:07:47;98254.66;;;-4.77;82.23
35489;BME280;21602;55.670;37.578;2023-03-13T05:10:31;98259.53;;;-4.74;81.68
35489;BME280;21602;55.670;37.578;2023-03-13T05:13:10;98259.38;;;-4.73;81.79
35489;BME280;21602;55.670;37.578;2023-03-13T05:16:06;98274.34;;;-4.67;81.89
35489;BME280;21602;55.670;37.578;2023-03-13T05:18:56;98274.81;;;-4.63;81.10
35489;BME280;21602;55.670;37.578;2023-03-13T05:21:38;98280.34;;;-4.58;80.70
35489;BME280;21602;55.670;37.578;2023-03-13T05:24:23;98287.38;;;-4.58;80.87
35489;BME280;21602;55.670;37.578;2023-03-13T05:26:49;98288.31;;;-4.51;80.52
35489;BME280;21602;55.670;37.578;2023-03-13T05:29:26;98296.13;;;-4.51;80.15
35489;BME280;21602;55.670;37.578;2023-03-13T05:32:11;98303.00;;;-4.50;80.40
35489;BME280;21602;55.670;37.578;2023-03-13T05:34:57;98314.22;;;-4.50;80.36
35489;BME280;21602;55.670;37.578;2023-03-13T05:37:46;98307.53;;;-4.44;80.03
35489;BME280;21602;55.670;37.578;2023-03-13T05:40:26;98303.16;;;-4.35;79.52
35489;BME280;21602;55.670;37.578;2023-03-13T05:43:17;98317.13;;;-4.28;79.14
35489;BME280;21602;55.670;37.578;2023-03-13T05:46:03;98310.94;;;-4.19;79.09
35489;BME280;21602;55.670;37.578;2023-03-13T05:48:56;98319.88;;;-4.14;78.64
35489;BME280;21602;55.670;37.578;2023-03-13T05:51:51;98315.16;;;-4.10;78.46
35489;BME280;21602;55.670;37.578;2023-03-13T05:54:37;98313.38;;;-4.01;78.49
35489;BME280;21602;55.670;37.578;2023-03-13T05:57:21;98325.91;;;-3.97;78.00
35489;BME280;21602;55.670;37.578;2023-03-13T06:00:22;98320.50;;;-3.87;77.57
35489;BME280;21602;55.670;37.578;2023-03-13T06:03:08;98333.19;;;-3.76;77.22
35489;BME280;21602;55.670;37.578;2023-03-13T06:05:39;98320.44;;;-3.71;76.70
35489;BME280;21602;55.670;37.578;2023-03-13T06:08:15;98332.19;;;-3.67;76.72
35489;BME280;21602;55.670;37.578;2023-03-13T06:10:44;98338.69;;;-3.71;76.46
35489;BME280;21602;55.670;37.578;2023-03-13T06:13:10;98339.00;;;-3.66;76.61
35489;BME280;21602;55.670;37.578;2023-03-13T06:15:36;98340.31;;;-3.62;76.09
35489;BME280;21602;55.670;37.578;2023-03-13T06:18:16;98336.25;;;-3.64;75.44
35489;BME280;21602;55.670;37.578;2023-03-13T06:20:42;98341.47;;;-3.64;75.57
35489;BME280;21602;55.670;37.578;2023-03-13T06:23:07;98348.13;;;-3.62;75.37
35489;BME280;21602;55.670;37.578;2023-03-13T06:25:34;98355.31;;;-3.55;75.29
35489;BME280;21602;55.670;37.578;2023-03-13T06:27:59;98345.50;;;-3.53;74.89
35489;BME280;21602;55.670;37.578;2023-03-13T06:30:25;98352.03;;;-3.57;74.19
35489;BME280;21602;55.670;37.578;2023-03-13T06:32:51;98365.09;;;-3.57;74.43
35489;BME280;21602;55.670;37.578;2023-03-13T06:35:17;98368.69;;;-3.58;74.08
35489;BME280;21602;55.670;37.578;2023-03-13T06:37:43;98368.16;;;-3.46;74.39
35489;BME280;21602;55.670;37.578;2023-03-13T06:40:10;98382.81;;;-3.37;73.78
35489;BME280;21602;55.670;37.578;2023-03-13T06:42:36;98382.16;;;-3.39;73.11
35489;BME280;21602;55.670;37.578;2023-03-13T06:45:01;98384.53;;;-3.21;73.57
35489;BME280;21602;55.670;37.578;2023-03-13T06:47:30;98382.53;;;-3.11;73.23
35489;BME280;21602;55.670;37.578;2023-03-13T06:49:59;98377.63;;;-3.05;72.79
35489;BME280;21602;55.670;37.578;2023-03-13T06:52:25;98381.63;;;-2.95;72.89
35489;BME280;21602;55.670;37.578;2023-03-13T06:54:51;98383.59;;;-2.89;71.80
35489;BME280;21602;55.670;37.578;2023-03-13T06:57:17;98383.06;;;-2.84;71.79
35489;BME280;21602;55.670;37.578;2023-03-13T06:59:43;98387.78;;;-2.79;72.07
35489;BME280;21602;55.670;37.578;2023-03-13T07:02:10;98399.03;;;-2.79;71.28
35489;BME280;21602;55.670;37.578;2023-03-13T07:04:37;98400.44;;;-2.68;70.85
35489;BME280;21602;55.670;37.578;2023-03-13T07:07:03;98406.06;;;-2.57;69.90
35489;BME280;21602;55.670;37.578;2023-03-13T07:09:30;98408.56;;;-2.32;70.12
35489;BME280;21602;55.670;37.578;2023-03-13T07:11:57;98413.13;;;-2.11;69.87
35489;BME280;21602;55.670;37.578;2023-03-13T07:14:24;98409.94;;;-1.98;70.16
35489;BME280;21602;55.670;37.578;2023-03-13T07:16:50;98412.84;;;-1.93;69.33
35489;BME280;21602;55.670;37.578;2023-03-13T07:19:16;98423.56;;;-1.88;69.35
35489;BME280;21602;55.670;37.578;2023-03-13T07:21:44;98423.16;;;-1.77;69.43
35489;BME280;21602;55.670;37.578;2023-03-13T07:24:13;98431.22;;;-1.64;69.66
35489;BME280;21602;55.670;37.578;2023-03-13T07:26:39;98430.47;;;-1.58;67.71
35489;BME280;21602;55.670;37.578;2023-03-13T07:29:14;98445.78;;;-1.32;68.65
35489;BME280;21602;55.670;37.578;2023-03-13T07:31:46;98450.50;;;-1.12;67.88
35489;BME280;21602;55.670;37.578;2023-03-13T07:34:12;98456.19;;;-0.94;67.81
35489;BME280;21602;55.670;37.578;2023-03-13T07:36:37;98454.63;;;-0.88;66.31
35489;BME280;21602;55.670;37.578;2023-03-13T07:39:22;98468.09;;;-0.91;66.94
35489;BME280;21602;55.670;37.578;2023-03-13T07:41:48;98469.72;;;-0.90;67.00
35489;BME280;21602;55.670;37.578;2023-03-13T07:44:16;98478.69;;;-0.85;66.99
35489;BME280;21602;55.670;37.578;2023-03-13T07:47:00;98477.91;;;-0.64;67.33
35489;BME280;21602;55.670;37.578;2023-03-13T07:49:26;98493.81;;;-0.50;67.17
35489;BME280;21602;55.670;37.578;2023-03-13T07:51:52;98493.59;;;-0.34;67.43
35489;BME280;21602;55.670;37.578;2023-03-13T07:54:19;98491.63;;;-0.32;66.66
35489;BME280;21602;55.670;37.578;2023-03-13T07:56:45;98489.34;;;-0.35;66.34
35489;BME280;21602;55.670;37.578;2023-03-13T07:59:11;98487.09;;;-0.38;66.95
35489;BME280;21602;55.670;37.578;2023-03-13T08:01:37;98494.16;;;-0.39;66.60
35489;BME280;21602;55.670;37.578;2023-03-13T08:04:03;98497.88;;;-0.33;66.80
35489;BME280;21602;55.670;37.578;2023-03-13T08:06:33;98501.97;;;-0.24;66.48
35489;BME280;21602;55.670;37.578;2023-03-13T08:09:03;98497.47;;;-0.30;66.38
35489;BME280;21602;55.670;37.578;2023-03-13T08:11:30;98502.66;;;-0.37;66.48
35489;BME280;21602;55.670;37.578;2023-03-13T08:13:59;98492.75;;;-0.56;66.40
35489;BME280;21602;55.670;37.578;2023-03-13T08:16:32;98503.66;;;-0.53;66.68
35489;BME280;21602;55.670;37.578;2023-03-13T08:18:59;98499.69;;;-0.48;66.74
35489;BME280;21602;55.670;37.578;2023-03-13T08:21:30;98498.13;;;-0.43;66.84
35489;BME280;21602;55.670;37.578;2023-03-13T08:23:58;98502.28;;;-0.34;66.45
35489;BME280;21602;55.670;37.578;2023-03-13T08:26:27;98512.09;;;-0.21;66.63
35489;BME280;21602;55.670;37.578;2023-03-13T08:28:58;98500.50;;;-0.12;66.68
35489;BME280;21602;55.670;37.578;2023-03-13T08:31:33;98502.88;;;-0.17;66.64
35489;BME280;21602;55.670;37.578;2023-03-13T08:33:59;98512.84;;;-0.27;66.41
35489;BME280;21602;55.670;37.578;2023-03-13T08:36:27;98515.09;;;-0.24;66.75
35489;BME280;21602;55.670;37.578;2023-03-13T08:38:56;98525.31;;;-0.29;66.94
35489;BME280;21602;55.670;37.578;2023-03-13T08:41:24;98508.63;;;-0.58;67.00
35489;BME280;21602;55.670;37.578;2023-03-13T08:43:55;98518.59;;;-0.68;67.14
35489;BME280;21602;55.670;37.578;2023-03-13T08:46:21;98527.94;;;-0.80;67.69
35489;BME280;21602;55.670;37.578;2023-03-13T08:48:49;98517.44;;;-0.95;67.84
35489;BME280;21602;55.670;37.578;2023-03-13T08:51:18;98518.59;;;-0.97;68.47
35489;BME280;21602;55.670;37.578;2023-03-13T08:53:44;98534.78;;;-0.94;68.50
35489;BME280;21602;55.670;37.578;2023-03-13T08:56:12;98534.31;;;-0.83;68.26
35489;BME280;21602;55.670;37.578;2023-03-13T08:58:39;98550.84;;;-0.67;68.62
35489;BME280;21602;55.670;37.578;2023-03-13T09:01:11;98549.97;;;-0.60;68.69
35489;BME280;21602;55.670;37.578;2023-03-13T09:03:43;98544.00;;;-0.54;68.49
35489;BME280;21602;55.670;37.578;2023-03-13T09:06:10;98556.09;;;-0.38;68.29
35489;BME280;21602;55.670;37.578;2023-03-13T09:08:40;98549.06;;;-0.37;68.44
35489;BME280;21602;55.670;37.578;2023-03-13T09:11:09;98554.66;;;-0.40;68.64
35489;BME280;21602;55.670;37.578;2023-03-13T09:13:38;98552.28;;;-0.35;68.80
35489;BME280;21602;55.670;37.578;2023-03-13T09:16:07;98564.31;;;-0.26;68.58
35489;BME280;21602;55.670;37.578;2023-03-13T09:18:34;98576.44;;;-0.40;68.19
35489;BME280;21602;55.670;37.578;2023-03-13T09:21:00;98573.19;;;-0.27;68.41
35489;BME280;21602;55.670;37.578;2023-03-13T09:23:26;98567.66;;;-0.32;68.73
35489;BME280;21602;55.670;37.578;2023-03-13T09:25:54;98563.81;;;-0.15;68.68
35489;BME280;21602;55.670;37.578;2023-03-13T09:28:21;98567.84;;;-0.19;68.76
35489;BME280;21602;55.670;37.578;2023-03-13T09:30:48;98577.19;;;-0.46;68.48
35489;BME280;21602;55.670;37.578;2023-03-13T09:33:15;98573.91;;;-0.63;69.19
35489;BME280;21602;55.670;37.578;2023-03-13T09:35:41;98574.81;;;-0.70;69.51
35489;BME280;21602;55.670;37.578;2023-03-13T09:38:08;98571.00;;;-0.68;69.54
35489;BME280;21602;55.670;37.578;2023-03-13T09:40:40;98579.25;;;-0.71;69.68
35489;BME280;21602;55.670;37.578;2023-03-13T09:43:40;98587.19;;;-0.79;70.30
35489;BME280;21602;55.670;37.578;2023-03-13T09:46:21;98590.56;;;-0.56;70.18
35489;BME280;21602;55.670;37.578;2023-03-13T09:48:50;98591.00;;;-0.37;70.34
35489;BME280;21602;55.670;37.578;2023-03-13T09:51:26;98590.34;;;-0.24;69.73
35489;BME280;21602;55.670;37.578;2023-03-13T09:54:05;98589.53;;;-0.25;69.73
35489;BME280;21602;55.670;37.578;2023-03-13T09:56:38;98602.09;;;-0.20;70.14
35489;BME280;21602;55.670;37.578;2023-03-13T09:59:21;98598.69;;;-0.36;70.03
35489;BME280;21602;55.670;37.578;2023-03-13T10:01:49;98597.06;;;-0.52;69.92
35489;BME280;21602;55.670;37.578;2023-03-13T10:06:45;98598.22;;;-0.39;69.88
35489;BME280;21602;55.670;37.578;2023-03-13T10:09:33;98610.00;;;-0.35;70.40
35489;BME280;21602;55.670;37.578;2023-03-13T10:22:45;98606.44;;;-0.57;70.42
35489;BME280;21602;55.670;37.578;2023-03-13T10:25:27;98634.56;;;-0.66;70.60
35489;BME280;21602;55.670;37.578;2023-03-13T10:27:55;98628.69;;;-0.68;71.01
35489;BME280;21602;55.670;37.578;2023-03-13T10:30:27;98632.09;;;-0.82;71.08
35489;BME280;21602;55.670;37.578;2023-03-13T10:33:23;98631.63;;;-0.86;71.58
35489;BME280;21602;55.670;37.578;2023-03-13T10:36:12;98630.03;;;-0.72;71.36
35489;BME280;21602;55.670;37.578;2023-03-13T10:38:53;98636.94;;;-0.71;71.70
35489;BME280;21602;55.670;37.578;2023-03-13T10:41:33;98653.28;;;-0.69;71.00
35489;BME280;21602;55.670;37.578;2023-03-13T10:44:05;98643.78;;;-0.70;71.51
35489;BME280;21602;55.670;37.578;2023-03-13T10:46:35;98649.50;;;-0.66;70.88
35489;BME280;21602;55.670;37.578;2023-03-13T10:49:21;98655.00;;;-0.61;70.77
35489;BME280;21602;55.670;37.578;2023-03-13T10:51:56;98674.69;;;-0.80;70.27
35489;BME280;21602;55.670;37.578;2023-03-13T10:54:27;98670.34;;;-0.73;70.77
35489;BME280;21602;55.670;37.578;2023-03-13T10:59:51;98677.59;;;-0.75;70.01
35489;BME280;21602;55.670;37.578;2023-03-13T11:02:31;98677.84;;;-0.70;70.18
35489;BME280;21602;55.670;37.578;2023-03-13T11:04:58;98695.13;;;-0.75;70.23
35489;BME280;21602;55.670;37.578;2023-03-13T11:10:22;98693.91;;;-0.88;70.18
35489;BME280;21602;55.670;37.578;2023-03-13T11:12:51;98703.81;;;-0.98;70.85
35489;BME280;21602;55.670;37.578;2023-03-13T11:15:24;98697.56;;;-0.97;70.81
35489;BME280;21602;55.670;37.578;2023-03-13T11:20:27;98698.84;;;-0.93;71.38
35489;BME280;21602;55.670;37.578;2023-03-13T11:31:41;98723.03;;;-0.68;71.63
35489;BME280;21602;55.670;37.578;2023-03-13T11:34:02;98732.75;;;-0.54;70.84
35489;BME280;21602;55.670;37.578;2023-03-13T11:48:08;98734.19;;;-0.66;71.72
35489;BME280;21602;55.670;37.578;2023-03-13T11:50:55;98735.53;;;-0.70;72.30
35489;BME280;21602;55.670;37.578;2023-03-13T11:56:42;98743.97;;;-0.83;75.19
35489;BME280;21602;55.670;37.578;2023-03-13T11:59:38;98747.81;;;-0.93;76.48
35489;BME280;21602;55.670;37.578;2023-03-13T12:02:27;98758.34;;;-1.01;78.34
35489;BME280;21602;55.670;37.578;2023-03-13T12:05:02;98767.16;;;-0.94;78.64
35489;BME280;21602;55.670;37.578;2023-03-13T12:07:35;98769.38;;;-0.83;77.83
35489;BME280;21602;55.670;37.578;2023-03-13T12:10:08;98758.97;;;-0.77;77.11
35489;BME280;21602;55.670;37.578;2023-03-13T12:15:13;98760.44;;;-0.74;76.87
35489;BME280;21602;55.670;37.578;2023-03-13T12:18:01;98761.78;;;-0.78;76.48
35489;BME280;21602;55.670;37.578;2023-03-13T12:23:52;98758.16;;;-0.77;76.67
35489;BME280;21602;55.670;37.578;2023-03-13T12:26:32;98758.47;;;-0.72;76.71
35489;BME280;21602;55.670;37.578;2023-03-13T12:29:07;98767.03;;;-0.78;76.23
35489;BME280;21602;55.670;37.578;2023-03-13T12:31:50;98762.50;;;-0.84;76.38
35489;BME280;21602;55.670;37.578;2023-03-13T12:34:26;98773.31;;;-0.87;76.11
35489;BME280;21602;55.670;37.578;2023-03-13T12:37:05;98770.69;;;-0.87;76.43
35489;BME280;21602;55.670;37.578;2023-03-13T12:39:43;98772.31;;;-0.86;75.83
35489;BME280;21602;55.670;37.578;2023-03-13T12:42:32;98775.94;;;-0.87;75.36
35489;BME280;21602;55.670;37.578;2023-03-13T12:45:01;98775.97;;;-0.95;74.51
35489;BME280;21602;55.670;37.578;2023-03-13T12:53:55;98796.03;;;-0.80;73.10
35489;BME280;21602;55.670;37.578;2023-03-13T12:56:45;98785.09;;;-0.83;72.33
35489;BME280;21602;55.670;37.578;2023-03-13T12:59:18;98796.16;;;-0.73;72.56
35489;BME280;21602;55.670;37.578;2023-03-13T13:01:49;98787.91;;;-0.62;72.24
35489;BME280;21602;55.670;37.578;2023-03-13T13:04:23;98798.38;;;-0.62;71.22
35489;BME280;21602;55.670;37.578;2023-03-13T13:09:36;98798.78;;;-0.73;70.94
35489;BME280;21602;55.670;37.578;2023-03-13T13:12:20;98797.19;;;-0.59;71.10
35489;BME280;21602;55.670;37.578;2023-03-13T13:17:44;98801.22;;;-0.48;70.09
35489;BME280;21602;55.670;37.578;2023-03-13T13:23:24;98814.72;;;-0.37;69.54
35489;BME280;21602;55.670;37.578;2023-03-13T13:25:53;98809.06;;;-0.48;68.88
35489;BME280;21602;55.670;37.578;2023-03-13T13:28:25;98827.94;;;-0.53;68.61
35489;BME280;21602;55.670;37.578;2023-03-13T13:30:56;98816.66;;;-0.54;68.56
35489;BME280;21602;55.670;37.578;2023-03-13T13:38:35;98828.75;;;-0.53;68.24
35489;BME280;21602;55.670;37.578;2023-03-13T13:43:44;98825.22;;;-0.60;66.73
35489;BME280;21602;55.670;37.578;2023-03-13T13:46:32;98826.56;;;-0.64;65.19
35489;BME280;21602;55.670;37.578;2023-03-13T13:51:34;98837.16;;;-0.57;64.68
35489;BME280;21602;55.670;37.578;2023-03-13T14:02:12;98847.88;;;-0.90;64.88
35489;BME280;21602;55.670;37.578;2023-03-13T14:12:58;98851.50;;;-0.99;65.70
35489;BME280;21602;55.670;37.578;2023-03-13T14:15:33;98855.47;;;-1.03;65.39
35489;BME280;21602;55.670;37.578;2023-03-13T14:18:26;98854.28;;;-1.00;65.53
35489;BME280;21602;55.670;37.578;2023-03-13T14:20:59;98859.50;;;-0.92;65.37
35489;BME280;21602;55.670;37.578;2023-03-13T14:23:39;98858.47;;;-0.83;65.15
35489;BME280;21602;55.670;37.578;2023-03-13T14:28:47;98867.72;;;-0.72;64.96
35489;BME280;21602;55.670;37.578;2023-03-13T14:33:50;98866.22;;;-0.67;64.84
35489;BME280;21602;55.670;37.578;2023-03-13T14:36:16;98870.84;;;-0.69;63.91
35489;BME280;21602;55.670;37.578;2023-03-13T14:38:54;98876.25;;;-0.70;64.81
35489;BME280;21602;55.670;37.578;2023-03-13T14:41:31;98880.22;;;-0.74;64.66
35489;BME280;21602;55.670;37.578;2023-03-13T14:44:03;98879.59;;;-0.85;64.72
35489;BME280;21602;55.670;37.578;2023-03-13T14:46:52;98882.91;;;-0.91;64.12
35489;BME280;21602;55.670;37.578;2023-03-13T14:49:26;98882.28;;;-1.01;64.27
35489;BME280;21602;55.670;37.578;2023-03-13T14:52:02;98886.22;;;-0.97;64.65
35489;BME280;21602;55.670;37.578;2023-03-13T14:59:34;98893.25;;;-0.97;64.34
35489;BME280;21602;55.670;37.578;2023-03-13T15:02:22;98898.81;;;-1.00;64.72
35489;BME280;21602;55.670;37.578;2023-03-13T15:04:49;98889.66;;;-1.05;64.42
35489;BME280;21602;55.670;37.578;2023-03-13T15:07:15;98890.34;;;-1.11;64.59
35489;BME280;21602;55.670;37.578;2023-03-13T15:09:44;98906.88;;;-1.10;64.59
35489;BME280;21602;55.670;37.578;2023-03-13T15:12:16;98906.59;;;-1.15;64.57